Time;durP1;ratioP1;P1;durP2;ratioP2;P2;SDS_P1;SDS_P2;PMS_P1;PMS_P2;Temp;Humidity;BMP_temperature;BMP_pressure;BME280_temperature;BME280_humidity;BME280_pressure;Samples;Min_cycle;Max_cycle;Signal;HPM_P1;HPM_P2
2023/09/26 00:00:14;;;;;;;37.75;21.67;;;8.90;99.90;;;;;;5011434;28;20845;-84
2023/09/26 00:02:40;;;;;;;37.13;21.77;;;8.80;99.90;;;;;;5000906;28;20080;-84
2023/09/26 00:05:08;;;;;;;42.42;24.27;;;8.80;99.90;;;;;;4988156;28;20026;-84
2023/09/26 00:07:35;;;;;;;47.00;26.50;;;8.70;99.90;;;;;;5019894;28;20032;-84
2023/09/26 00:10:02;;;;;;;45.83;25.15;;;8.70;99.90;;;;;;4985550;28;20132;-84
2023/09/26 00:12:28;;;;;;;41.20;23.83;;;8.60;99.90;;;;;;5004034;28;20036;-84
2023/09/26 00:15:00;;;;;;;39.75;23.30;;;8.60;99.90;;;;;;4995916;28;20109;-84
2023/09/26 00:17:26;;;;;;;35.72;20.55;;;8.50;99.90;;;;;;5022705;28;20531;-84
2023/09/26 00:19:52;;;;;;;31.63;20.00;;;8.50;99.90;;;;;;5015764;28;20033;-84
2023/09/26 00:22:18;;;;;;;33.53;20.42;;;8.40;99.90;;;;;;4999062;28;20030;-84
2023/09/26 00:24:44;;;;;;;31.55;21.55;;;8.40;99.90;;;;;;5007796;28;20033;-84
2023/09/26 00:27:19;;;;;;;28.75;19.80;;;8.40;99.90;;;;;;5005437;28;20104;-84
2023/09/26 00:29:44;;;;;;;31.10;20.85;;;8.50;99.90;;;;;;5024500;28;20026;-84
2023/09/26 00:32:11;;;;;;;36.08;21.40;;;8.40;99.90;;;;;;5001758;28;20033;-84
2023/09/26 00:34:36;;;;;;;28.95;19.98;;;8.50;99.90;;;;;;5022786;28;20481;-84
2023/09/26 00:37:03;;;;;;;31.02;19.67;;;8.40;99.90;;;;;;5003838;28;20041;-85
2023/09/26 00:39:30;;;;;;;27.08;18.77;;;8.40;99.90;;;;;;4999405;28;20045;-84
2023/09/26 00:41:55;;;;;;;27.08;19.45;;;8.40;99.90;;;;;;4989265;28;20031;-84
2023/09/26 00:44:21;;;;;;;27.63;19.23;;;8.40;99.90;;;;;;5028668;28;20033;-84
2023/09/26 00:46:47;;;;;;;26.23;18.60;;;8.40;99.90;;;;;;4999338;28;20378;-84
2023/09/26 00:49:13;;;;;;;28.23;19.48;;;8.40;99.90;;;;;;5001105;28;20022;-84
2023/09/26 00:51:39;;;;;;;27.50;18.98;;;8.40;99.90;;;;;;4992635;28;20032;-84
2023/09/26 00:54:09;;;;;;;31.50;20.25;;;8.40;99.90;;;;;;5006280;28;20065;-84
2023/09/26 00:56:35;;;;;;;28.45;20.40;;;8.30;99.90;;;;;;4993917;28;20087;-84
2023/09/26 00:59:01;;;;;;;29.95;20.77;;;8.30;99.90;;;;;;5030798;28;20048;-84
2023/09/26 01:02:23;;;;;;;31.23;20.70;;;8.30;99.90;;;;;;5004542;28;20112;-85
2023/09/26 01:08:37;;;;;;;33.90;19.55;;;8.30;99.90;;;;;;5021915;28;20040;-85
2023/09/26 01:11:13;;;;;;;30.38;21.00;;;8.20;99.90;;;;;;5001468;28;20116;-84
2023/09/26 01:13:39;;;;;;;33.78;19.08;;;8.30;99.90;;;;;;4983149;28;20030;-85
2023/09/26 01:16:19;;;;;;;30.67;21.23;;;8.20;99.90;;;;;;5004925;28;20116;-85
2023/09/26 01:18:46;;;;;;;32.28;22.13;;;8.20;99.90;;;;;;5001039;28;20026;-84
2023/09/26 01:21:14;;;;;;;34.83;23.45;;;8.20;99.90;;;;;;4999489;28;20025;-84
2023/09/26 01:23:41;;;;;;;29.92;21.90;;;8.30;99.90;;;;;;5020241;28;20029;-84
2023/09/26 01:26:07;;;;;;;35.55;22.70;;;8.40;99.90;;;;;;4984584;28;20033;-85
2023/09/26 01:28:35;;;;;;;31.55;21.33;;;8.50;99.90;;;;;;5020256;28;20026;-84
2023/09/26 01:31:01;;;;;;;33.63;20.55;;;8.50;99.90;;;;;;4986612;28;20029;-84
2023/09/26 01:33:27;;;;;;;28.85;20.00;;;8.50;99.90;;;;;;4981368;28;20035;-84
2023/09/26 01:35:52;;;;;;;27.58;19.88;;;8.50;99.90;;;;;;5008668;28;20033;-84
2023/09/26 01:38:21;;;;;;;29.45;20.35;;;8.50;99.90;;;;;;5008037;28;20029;-85
2023/09/26 01:40:47;;;;;;;28.88;19.33;;;8.50;99.90;;;;;;5007084;28;20803;-84
2023/09/26 01:43:13;;;;;;;31.25;19.48;;;8.50;99.90;;;;;;5015258;28;20059;-84
2023/09/26 01:45:39;;;;;;;27.17;18.52;;;8.50;99.90;;;;;;5003471;28;20026;-84
2023/09/26 01:48:05;;;;;;;25.30;17.27;;;8.50;99.90;;;;;;5023132;28;20037;-84
2023/09/26 01:50:34;;;;;;;26.98;17.70;;;8.40;99.90;;;;;;5018530;28;20475;-85
2023/09/26 01:53:00;;;;;;;25.95;19.13;;;8.40;99.90;;;;;;4991605;28;20025;-84
2023/09/26 01:55:26;;;;;;;30.13;21.30;;;8.40;99.90;;;;;;5005243;28;20074;-84
2023/09/26 01:57:52;;;;;;;34.20;22.52;;;8.60;99.90;;;;;;5006329;28;20120;-84
2023/09/26 02:00:19;;;;;;;35.03;23.02;;;8.90;99.90;;;;;;5006501;28;20071;-84
2023/09/26 02:02:47;;;;;;;33.50;23.42;;;9.10;99.90;;;;;;5018415;28;20037;-84
2023/09/26 02:05:16;;;;;;;35.55;23.65;;;9.00;99.90;;;;;;5018385;28;20492;-85
2023/09/26 02:07:43;;;;;;;35.92;23.88;;;9.00;99.90;;;;;;5017843;28;20079;-84
2023/09/26 02:10:10;;;;;;;31.65;21.77;;;9.10;99.90;;;;;;5004765;28;20168;-84
2023/09/26 02:12:37;;;;;;;33.17;21.98;;;9.10;99.90;;;;;;5018718;28;20030;-84
2023/09/26 02:15:06;;;;;;;33.92;19.73;;;9.10;99.90;;;;;;5018574;28;20029;-84
2023/09/26 02:17:35;;;;;;;33.75;19.63;;;9.00;99.90;;;;;;4999131;28;20518;-85
2023/09/26 02:20:10;;;;;;;26.77;19.23;;;8.90;99.90;;;;;;5011761;28;20426;-84
2023/09/26 02:22:36;;;;;;;30.48;21.92;;;8.90;99.90;;;;;;5005587;28;20700;-85
2023/09/26 02:25:02;;;;;;;28.58;18.85;;;8.80;99.90;;;;;;5011166;28;20036;-85
2023/09/26 02:27:28;;;;;;;29.77;19.05;;;8.80;99.90;;;;;;5005631;28;20030;-85
2023/09/26 02:29:54;;;;;;;28.85;19.15;;;8.80;99.90;;;;;;5034252;28;20473;-85
2023/09/26 02:32:19;;;;;;;30.10;17.73;;;8.80;99.90;;;;;;5007534;28;20025;-84
2023/09/26 02:34:45;;;;;;;27.67;19.15;;;8.70;99.90;;;;;;5034350;28;20520;-85
2023/09/26 02:37:51;;;;;;;30.00;19.88;;;8.70;99.90;;;;;;5009061;28;20037;-85
2023/09/26 02:40:17;;;;;;;31.65;20.55;;;8.70;99.90;;;;;;5026107;28;20026;-85
2023/09/26 02:42:46;;;;;;;31.85;19.85;;;8.70;99.90;;;;;;5011536;28;20109;-85
2023/09/26 02:45:13;;;;;;;33.03;21.38;;;8.70;99.90;;;;;;5017666;28;20030;-85
2023/09/26 02:47:39;;;;;;;29.48;20.65;;;8.90;99.90;;;;;;5004814;28;20025;-85
2023/09/26 02:50:07;;;;;;;28.70;19.90;;;8.80;99.90;;;;;;5019262;28;20025;-85
2023/09/26 02:52:33;;;;;;;33.78;20.73;;;8.80;99.90;;;;;;5030797;28;20030;-85
2023/09/26 02:55:00;;;;;;;34.00;21.33;;;8.80;99.90;;;;;;5020220;28;20067;-85
2023/09/26 02:57:26;;;;;;;31.25;21.27;;;8.80;99.90;;;;;;5007372;28;20110;-84
2023/09/26 02:59:51;;;;;;;34.03;20.25;;;8.80;99.90;;;;;;5023307;28;20022;-84
2023/09/26 03:02:17;;;;;;;32.97;21.15;;;8.80;99.90;;;;;;5004593;28;20180;-85
2023/09/26 03:04:49;;;;;;;29.27;19.40;;;8.70;99.90;;;;;;5033058;28;20041;-84
2023/09/26 03:07:15;;;;;;;28.65;18.80;;;8.70;99.90;;;;;;5017667;28;20477;-84
2023/09/26 03:09:57;;;;;;;30.20;18.70;;;8.60;99.90;;;;;;5005742;28;20461;-83
2023/09/26 03:12:23;;;;;;;32.33;19.15;;;8.60;99.90;;;;;;5033516;28;20104;-85
2023/09/26 03:14:49;;;;;;;30.27;20.45;;;8.60;99.90;;;;;;5006259;28;20094;-84
2023/09/26 03:17:14;;;;;;;31.50;20.75;;;8.60;99.90;;;;;;5017040;28;20109;-84
2023/09/26 03:19:40;;;;;;;33.72;21.02;;;8.60;99.90;;;;;;5017352;28;20036;-84
2023/09/26 03:22:06;;;;;;;28.35;19.17;;;8.70;99.90;;;;;;5015818;28;20037;-84
2023/09/26 03:24:32;;;;;;;32.03;19.65;;;8.70;99.90;;;;;;5001967;28;20044;-85
2023/09/26 03:26:57;;;;;;;31.00;18.88;;;8.60;99.90;;;;;;5022379;28;20030;-84
2023/09/26 03:29:23;;;;;;;28.02;18.20;;;8.50;99.90;;;;;;5005727;28;20018;-84
2023/09/26 03:31:50;;;;;;;29.55;18.75;;;8.50;99.90;;;;;;5005975;28;20813;-84
2023/09/26 03:34:15;;;;;;;26.63;19.17;;;8.50;99.90;;;;;;5008473;28;20026;-84
2023/09/26 03:36:41;;;;;;;28.48;18.05;;;8.50;99.90;;;;;;5003795;28;20508;-84
2023/09/26 03:39:07;;;;;;;34.13;18.10;;;8.50;99.90;;;;;;5002606;28;20033;-85
2023/09/26 03:41:33;;;;;;;29.58;17.67;;;8.50;99.90;;;;;;5004218;28;20026;-84
2023/09/26 03:43:59;;;;;;;26.77;18.65;;;8.40;99.90;;;;;;5032881;28;20345;-84
2023/09/26 03:46:24;;;;;;;30.25;18.83;;;8.40;99.90;;;;;;5005499;28;20037;-84
2023/09/26 03:48:50;;;;;;;30.83;19.88;;;8.30;99.90;;;;;;5001516;28;20064;-85
2023/09/26 03:51:16;;;;;;;32.67;20.85;;;8.30;99.90;;;;;;5024830;28;20229;-85
2023/09/26 03:53:43;;;;;;;31.85;21.15;;;8.30;99.90;;;;;;5001816;28;20119;-85
2023/09/26 03:56:09;;;;;;;36.60;22.20;;;8.30;99.90;;;;;;5030820;28;20026;-85
2023/09/26 03:58:36;;;;;;;35.97;22.40;;;8.30;99.90;;;;;;5010899;28;20061;-84
2023/09/26 04:01:12;;;;;;;37.95;23.38;;;8.30;99.90;;;;;;5016053;28;20038;-84
2023/09/26 04:03:39;;;;;;;40.30;23.05;;;8.30;99.90;;;;;;5004422;28;20065;-84
2023/09/26 04:06:05;;;;;;;35.35;22.67;;;8.30;99.90;;;;;;4987682;28;20033;-84
2023/09/26 04:08:31;;;;;;;40.70;24.08;;;8.30;99.90;;;;;;4997279;28;20029;-84
2023/09/26 04:10:57;;;;;;;35.28;24.15;;;8.40;99.90;;;;;;4989197;28;20033;-85
2023/09/26 04:13:23;;;;;;;38.58;24.58;;;8.40;99.90;;;;;;4997930;28;20018;-84
2023/09/26 04:15:49;;;;;;;37.08;23.63;;;8.40;99.90;;;;;;5007451;28;20875;-85
2023/09/26 04:18:15;;;;;;;43.95;25.13;;;8.40;99.90;;;;;;4994491;28;20033;-84
2023/09/26 04:20:41;;;;;;;37.67;23.88;;;8.40;99.90;;;;;;5006797;28;20040;-84
2023/09/26 04:23:40;;;;;;;43.17;25.10;;;8.40;99.90;;;;;;5013123;28;20069;-85
2023/09/26 04:26:14;;;;;;;43.78;25.42;;;8.40;99.90;;;;;;5014332;28;20037;-84
2023/09/26 04:28:44;;;;;;;38.60;23.70;;;8.40;99.90;;;;;;5006829;28;20033;-84
2023/09/26 04:31:16;;;;;;;39.17;24.50;;;8.40;99.90;;;;;;4999779;28;20032;-84
2023/09/26 04:33:42;;;;;;;37.55;24.10;;;8.30;99.90;;;;;;5011121;28;20029;-84
2023/09/26 04:36:08;;;;;;;40.90;25.42;;;8.30;99.90;;;;;;4995369;28;20122;-84
2023/09/26 04:38:35;;;;;;;39.08;25.83;;;8.20;99.90;;;;;;5003635;28;20083;-84
2023/09/26 04:41:04;;;;;;;42.70;24.88;;;8.20;99.90;;;;;;5007703;28;20022;-84
2023/09/26 04:43:33;;;;;;;40.50;24.52;;;8.20;99.90;;;;;;4999187;28;20057;-84
2023/09/26 04:46:00;;;;;;;41.13;24.67;;;8.20;99.90;;;;;;5012275;28;20053;-84
2023/09/26 04:48:26;;;;;;;42.08;26.02;;;8.20;99.90;;;;;;5011607;28;20029;-84
2023/09/26 04:50:52;;;;;;;41.55;25.00;;;8.20;99.90;;;;;;5005588;28;20064;-84
2023/09/26 04:53:18;;;;;;;40.85;26.52;;;8.30;99.90;;;;;;5001428;28;20429;-84
2023/09/26 04:55:43;;;;;;;47.88;27.50;;;8.30;99.90;;;;;;4994904;28;20083;-84
2023/09/26 04:58:09;;;;;;;49.60;27.35;;;8.30;99.90;;;;;;5004036;28;20038;-84
2023/09/26 05:00:36;;;;;;;43.03;27.02;;;8.30;99.90;;;;;;4997823;28;20054;-84
2023/09/26 05:03:02;;;;;;;42.97;26.05;;;8.30;99.90;;;;;;5009987;28;20037;-84
2023/09/26 05:05:31;;;;;;;45.13;26.23;;;8.30;99.90;;;;;;4994773;28;20029;-85
2023/09/26 05:07:56;;;;;;;49.42;26.88;;;8.30;99.90;;;;;;5012278;28;20026;-85
2023/09/26 05:10:22;;;;;;;40.95;26.10;;;8.30;99.90;;;;;;5000183;28;20484;-84
2023/09/26 05:12:48;;;;;;;49.40;27.73;;;8.30;99.90;;;;;;5015264;28;20021;-84
2023/09/26 05:15:36;;;;;;;45.53;27.05;;;8.30;99.90;;;;;;5006157;28;20584;-84
2023/09/26 05:18:02;;;;;;;48.42;27.90;;;8.30;99.90;;;;;;5000518;28;20034;-85
2023/09/26 05:20:31;;;;;;;46.30;27.77;;;8.30;99.90;;;;;;5002960;28;20101;-84
2023/09/26 05:22:59;;;;;;;46.45;28.42;;;8.40;99.90;;;;;;5015488;28;20037;-85
2023/09/26 05:25:25;;;;;;;48.45;28.58;;;8.40;99.90;;;;;;5021493;28;20487;-85
2023/09/26 05:28:05;;;;;;;49.05;28.90;;;8.50;99.90;;;;;;4999929;28;20104;-85
2023/09/26 05:30:30;;;;;;;50.08;28.30;;;8.50;99.90;;;;;;5009070;28;20053;-84
2023/09/26 05:32:56;;;;;;;48.97;27.48;;;8.60;99.90;;;;;;5006943;28;20107;-85
2023/09/26 05:35:22;;;;;;;51.17;29.65;;;8.50;99.90;;;;;;5016757;28;20024;-85
2023/09/26 05:37:48;;;;;;;52.33;29.88;;;8.50;99.90;;;;;;5018675;28;20037;-85
2023/09/26 05:40:14;;;;;;;49.83;29.35;;;8.60;99.90;;;;;;5000732;28;20709;-85
2023/09/26 05:42:40;;;;;;;43.63;26.23;;;8.60;99.90;;;;;;4992716;28;20060;-85
2023/09/26 05:45:08;;;;;;;48.97;28.50;;;8.70;99.90;;;;;;5003953;28;20108;-85
2023/09/26 05:47:34;;;;;;;52.60;28.98;;;8.70;99.90;;;;;;5013131;28;20034;-85
2023/09/26 05:50:01;;;;;;;45.38;26.60;;;8.80;99.90;;;;;;4988605;28;20029;-85
2023/09/26 05:52:27;;;;;;;47.28;29.33;;;8.80;99.90;;;;;;5011697;28;20135;-85
2023/09/26 05:54:53;;;;;;;49.33;29.55;;;8.90;99.90;;;;;;5011845;28;20116;-84
2023/09/26 05:57:19;;;;;;;53.67;29.38;;;9.00;99.90;;;;;;5013159;28;20133;-84
2023/09/26 05:59:44;;;;;;;52.85;30.15;;;9.10;99.90;;;;;;5011620;28;20456;-84
2023/09/26 06:02:13;;;;;;;51.92;31.27;;;9.30;99.90;;;;;;5009119;28;20133;-85
2023/09/26 06:04:42;;;;;;;49.78;29.52;;;9.30;99.90;;;;;;5031252;28;20790;-85
2023/09/26 06:07:09;;;;;;;54.55;30.25;;;9.40;99.90;;;;;;5010488;28;20084;-85
2023/09/26 06:09:36;;;;;;;52.47;28.95;;;9.50;99.90;;;;;;5020499;28;20034;-85
2023/09/26 06:12:03;;;;;;;46.58;28.75;;;9.60;99.90;;;;;;5009857;28;20540;-85
2023/09/26 06:14:29;;;;;;;47.97;28.63;;;9.70;99.90;;;;;;5003998;28;20033;-85
2023/09/26 06:16:54;;;;;;;52.40;28.80;;;9.80;99.90;;;;;;5007536;28;20747;-85
2023/09/26 06:19:20;;;;;;;48.90;28.92;;;9.80;99.90;;;;;;5004130;28;20030;-85
2023/09/26 06:21:46;;;;;;;51.13;29.20;;;9.90;99.90;;;;;;5019840;28;20034;-85
2023/09/26 06:24:11;;;;;;;43.92;28.23;;;9.90;99.90;;;;;;5022556;28;20034;-86
2023/09/26 06:26:37;;;;;;;49.00;29.05;;;10.10;99.90;;;;;;5007157;28;20022;-85
2023/09/26 06:29:03;;;;;;;56.78;28.70;;;10.10;99.90;;;;;;5005566;28;20024;-84
2023/09/26 06:31:29;;;;;;;52.38;28.95;;;10.30;99.90;;;;;;5010020;28;20029;-84
2023/09/26 06:33:56;;;;;;;52.65;31.13;;;10.30;99.90;;;;;;5008795;28;20029;-85
2023/09/26 06:36:21;;;;;;;52.20;31.17;;;10.40;99.90;;;;;;5010741;28;20021;-85
2023/09/26 06:38:47;;;;;;;45.42;27.70;;;10.50;99.90;;;;;;4991336;28;20522;-85
2023/09/26 06:41:13;;;;;;;47.38;28.73;;;10.70;99.90;;;;;;5030646;28;20115;-84
2023/09/26 06:43:39;;;;;;;47.75;27.90;;;10.80;99.90;;;;;;5002971;28;20044;-85
2023/09/26 06:46:06;;;;;;;50.53;29.83;;;10.90;99.90;;;;;;5013294;28;20759;-85
2023/09/26 06:48:37;;;;;;;54.97;31.35;;;11.00;99.90;;;;;;5011391;28;20037;-85
2023/09/26 06:51:03;;;;;;;54.78;31.63;;;11.00;99.90;;;;;;5005939;28;20103;-85
2023/09/26 06:53:30;;;;;;;51.10;30.88;;;11.20;99.90;;;;;;5009998;28;20438;-85
2023/09/26 06:56:00;;;;;;;50.45;31.05;;;11.40;99.90;;;;;;5012858;28;20538;-85
2023/09/26 06:58:26;;;;;;;57.43;30.23;;;11.50;99.90;;;;;;5010254;28;20471;-85
2023/09/26 07:00:52;;;;;;;53.88;30.70;;;11.60;99.90;;;;;;4993587;28;20368;-85
2023/09/26 07:03:18;;;;;;;47.90;28.80;;;11.70;99.90;;;;;;4999529;28;20076;-85
2023/09/26 07:05:44;;;;;;;46.58;29.70;;;11.80;99.90;;;;;;4999197;28;20017;-85
2023/09/26 07:08:12;;;;;;;45.10;27.83;;;11.90;99.90;;;;;;5009507;28;20036;-85
2023/09/26 07:10:38;;;;;;;43.63;27.38;;;12.00;99.90;;;;;;5025779;28;20030;-85
2023/09/26 07:13:04;;;;;;;41.10;26.00;;;12.10;99.90;;;;;;5031028;28;20105;-84
2023/09/26 07:15:34;;;;;;;39.53;24.48;;;12.30;99.90;;;;;;5010593;28;20133;-85
2023/09/26 07:18:03;;;;;;;33.33;23.02;;;12.40;99.90;;;;;;5029908;28;20087;-85
2023/09/26 07:20:29;;;;;;;30.58;22.63;;;12.50;99.90;;;;;;5008292;28;20041;-85
2023/09/26 07:22:55;;;;;;;31.92;21.33;;;12.60;99.90;;;;;;5005893;28;20104;-85
2023/09/26 07:25:21;;;;;;;29.90;19.98;;;12.60;99.90;;;;;;5010245;28;20448;-85
2023/09/26 07:27:47;;;;;;;29.52;19.85;;;12.70;99.90;;;;;;5012566;28;20036;-85
2023/09/26 07:30:12;;;;;;;30.10;18.83;;;12.80;99.90;;;;;;5005129;28;20064;-85
2023/09/26 07:32:39;;;;;;;22.90;17.15;;;12.90;99.90;;;;;;5008631;28;20499;-84
2023/09/26 07:35:05;;;;;;;20.27;15.35;;;13.00;99.90;;;;;;5000862;28;20037;-85
2023/09/26 07:37:31;;;;;;;21.50;14.18;;;13.20;99.90;;;;;;4998283;28;20026;-85
2023/09/26 07:39:57;;;;;;;14.85;12.43;;;13.30;99.90;;;;;;5031548;28;20040;-85
2023/09/26 07:42:23;;;;;;;18.23;12.32;;;13.40;99.90;;;;;;5004719;28;20548;-85
2023/09/26 07:44:48;;;;;;;17.77;11.40;;;13.40;99.90;;;;;;5005399;28;20084;-85
2023/09/26 07:47:14;;;;;;;16.23;11.77;;;13.50;99.90;;;;;;4990093;28;20098;-85
2023/09/26 07:49:40;;;;;;;20.17;12.23;;;13.50;99.90;;;;;;4986055;28;20026;-85
2023/09/26 07:52:07;;;;;;;14.40;11.40;;;13.70;99.90;;;;;;5004385;28;20168;-85
2023/09/26 07:54:33;;;;;;;14.45;12.23;;;13.90;99.90;;;;;;5003192;28;20041;-85
2023/09/26 07:56:58;;;;;;;20.60;10.50;;;14.10;99.90;;;;;;4997405;28;20034;-85
2023/09/26 07:59:24;;;;;;;14.85;11.50;;;14.10;99.90;;;;;;5003571;28;20037;-85
2023/09/26 08:01:50;;;;;;;16.15;11.95;;;14.20;99.90;;;;;;5008647;28;20484;-85
2023/09/26 08:04:16;;;;;;;11.82;10.05;;;14.40;99.90;;;;;;4996268;28;20400;-86
2023/09/26 08:06:42;;;;;;;14.25;9.52;;;14.50;99.90;;;;;;5011933;28;20080;-85
2023/09/26 08:09:49;;;;;;;11.48;9.60;;;14.70;99.90;;;;;;5008992;28;20028;-86
2023/09/26 08:12:14;;;;;;;15.38;9.95;;;14.80;99.90;;;;;;4989180;28;20500;-86
2023/09/26 08:14:40;;;;;;;11.98;10.02;;;14.90;99.90;;;;;;4999104;28;20014;-85
2023/09/26 08:17:06;;;;;;;14.23;9.50;;;15.00;99.90;;;;;;5013123;28;20029;-86
2023/09/26 08:19:31;;;;;;;12.80;9.82;;;15.10;99.90;;;;;;5003487;28;20367;-86
2023/09/26 08:22:41;;;;;;;9.52;8.48;;;15.20;99.90;;;;;;5017878;28;20026;-86
2023/09/26 08:25:08;;;;;;;15.50;9.23;;;15.40;99.90;;;;;;4996934;28;20037;-86
2023/09/26 08:27:33;;;;;;;16.13;9.77;;;15.40;99.90;;;;;;5006604;28;20448;-85
2023/09/26 08:29:59;;;;;;;11.95;8.60;;;15.50;99.90;;;;;;5012118;28;20120;-85
2023/09/26 08:32:26;;;;;;;11.35;9.13;;;15.60;99.90;;;;;;5004563;28;20045;-85
2023/09/26 08:34:57;;;;;;;11.50;8.15;;;15.70;99.90;;;;;;5013114;28;20021;-85
2023/09/26 08:37:24;;;;;;;12.52;7.75;;;16.00;99.90;;;;;;5005788;28;20029;-86
2023/09/26 08:39:51;;;;;;;9.60;7.18;;;16.70;99.90;;;;;;5000508;28;20022;-85
2023/09/26 08:42:27;;;;;;;7.05;6.32;;;17.90;99.90;;;;;;5015899;28;20444;-86
2023/09/26 08:44:54;;;;;;;10.10;6.65;;;19.40;99.90;;;;;;5012927;28;20054;-86
2023/09/26 08:47:24;;;;;;;6.70;5.40;;;21.10;99.90;;;;;;4988155;28;20026;-86
2023/09/26 08:49:54;;;;;;;6.95;4.78;;;22.40;99.90;;;;;;5015094;28;20032;-86
2023/09/26 08:52:23;;;;;;;5.72;4.95;;;22.60;99.90;;;;;;5012743;28;20026;-86
2023/09/26 08:54:49;;;;;;;7.13;5.13;;;23.90;99.90;;;;;;5021458;28;20485;-86
2023/09/26 08:57:16;;;;;;;7.03;4.32;;;24.30;99.90;;;;;;5012567;28;20030;-86
2023/09/26 08:59:47;;;;;;;8.27;5.40;;;24.00;99.90;;;;;;4994062;28;20501;-86
2023/09/26 09:02:13;;;;;;;8.80;5.13;;;23.20;99.90;;;;;;5027279;28;20037;-87
2023/09/26 09:04:43;;;;;;;6.18;5.40;;;22.60;99.90;;;;;;5012090;28;20426;-86
2023/09/26 09:07:10;;;;;;;6.57;5.55;;;22.30;99.90;;;;;;5008554;28;20034;-86
2023/09/26 09:09:36;;;;;;;7.68;5.68;;;21.60;99.90;;;;;;5015325;28;20397;-86
2023/09/26 09:12:02;;;;;;;8.32;5.22;;;20.80;99.90;;;;;;5015599;28;20045;-86
2023/09/26 09:14:32;;;;;;;9.90;5.93;;;20.40;99.90;;;;;;5008696;28;20056;-86
2023/09/26 09:20:46;;;;;;;7.63;5.40;;;20.50;99.90;;;;;;5026444;28;20036;-87
2023/09/26 09:23:12;;;;;;;6.63;4.88;;;21.10;99.90;;;;;;5003780;28;20029;-86
2023/09/26 09:25:38;;;;;;;9.48;4.93;;;21.20;99.90;;;;;;5007807;28;20029;-86
2023/09/26 09:28:09;;;;;;;5.95;4.85;;;21.40;99.90;;;;;;5012915;28;20033;-87
2023/09/26 09:30:38;;;;;;;;;;;22.00;99.90;;;;;;5020717;28;20025;-86
2023/09/26 09:33:06;;;;;;;6.20;4.13;;;22.60;99.90;;;;;;5027844;28;20258;-86
2023/09/26 09:35:33;;;;;;;10.02;5.43;;;23.50;99.90;;;;;;4990379;28;20582;-86
2023/09/26 09:38:00;;;;;;;7.50;4.65;;;23.30;99.90;;;;;;5012822;28;20038;-85
2023/09/26 09:40:26;;;;;;;6.18;4.38;;;23.20;99.90;;;;;;4995029;28;20121;-86
2023/09/26 09:42:51;;;;;;;5.13;4.32;;;23.20;99.90;;;;;;5005358;28;20104;-86
2023/09/26 09:45:18;;;;;;;5.57;4.57;;;23.40;99.90;;;;;;5012707;28;20033;-86
2023/09/26 09:47:45;;;;;;;6.00;4.47;;;23.40;99.90;;;;;;5024921;28;20060;-86
2023/09/26 09:50:13;;;;;;;4.80;3.97;;;23.00;99.90;;;;;;5021754;28;20025;-86
2023/09/26 09:52:44;;;;;;;6.28;5.10;;;23.10;99.90;;;;;;5011508;28;20547;-86
2023/09/26 09:55:20;;;;;;;8.63;4.88;;;22.90;99.90;;;;;;4994880;28;20807;-85
2023/09/26 09:57:51;;;;;;;5.93;4.45;;;22.30;99.90;;;;;;5003876;28;20784;-86
2023/09/26 10:00:19;;;;;;;5.68;3.92;;;22.30;99.90;;;;;;4993704;28;20065;-86
2023/09/26 10:02:46;;;;;;;8.77;4.20;;;23.20;99.90;;;;;;4988741;28;20026;-86
2023/09/26 10:05:14;;;;;;;5.95;4.60;;;23.50;99.90;;;;;;4992136;28;20071;-86
2023/09/26 10:07:44;;;;;;;4.68;4.18;;;24.30;99.90;;;;;;5001880;28;20026;-84
2023/09/26 10:10:11;;;;;;;5.85;4.22;;;23.80;99.90;;;;;;5005030;28;20052;-84
2023/09/26 10:12:41;;;;;;;4.10;3.70;;;24.10;99.90;;;;;;5018466;28;20036;-84
2023/09/26 10:15:13;;;;;;;6.70;3.42;;;24.30;99.90;;;;;;5003755;28;20033;-85
2023/09/26 10:17:40;;;;;;;5.93;4.10;;;24.60;99.90;;;;;;5021899;28;20037;-84
2023/09/26 10:20:16;;;;;;;6.50;3.97;;;23.60;99.90;;;;;;5010368;28;20148;-84
2023/09/26 10:22:44;;;;;;;5.90;4.07;;;23.50;99.90;;;;;;5008304;28;20037;-84
2023/09/26 10:25:22;;;;;;;5.88;4.30;;;23.30;99.90;;;;;;5013093;28;20052;-84
2023/09/26 10:27:48;;;;;;;8.55;4.65;;;23.70;99.90;;;;;;5023968;28;20025;-84
2023/09/26 10:30:14;;;;;;;7.57;4.55;;;24.10;99.90;;;;;;4995036;28;20480;-85
2023/09/26 10:32:42;;;;;;;9.02;5.45;;;24.10;99.90;;;;;;5020307;28;20033;-85
2023/09/26 10:35:29;;;;;;;5.55;4.38;;;23.90;99.90;;;;;;5001534;28;20887;-84
2023/09/26 10:38:22;;;;;;;7.03;3.50;;;24.00;99.90;;;;;;5004677;28;20096;-84
2023/09/26 10:40:48;;;;;;;10.82;4.68;;;23.50;99.90;;;;;;5011138;28;20029;-84
2023/09/26 10:43:17;;;;;;;7.07;3.92;;;23.80;99.90;;;;;;5012710;28;20783;-85
2023/09/26 10:45:44;;;;;;;6.07;4.13;;;24.20;99.90;;;;;;5010715;28;20021;-85
2023/09/26 10:48:17;;;;;;;7.35;3.88;;;24.60;99.90;;;;;;5002718;28;20088;-85
2023/09/26 10:50:42;;;;;;;5.78;4.10;;;24.90;99.90;;;;;;4993631;28;20030;-85
2023/09/26 10:53:09;;;;;;;7.47;4.18;;;25.10;99.90;;;;;;5024065;28;20443;-85
2023/09/26 10:55:36;;;;;;;7.30;3.92;;;25.10;99.90;;;;;;5014072;28;20446;-84
2023/09/26 10:58:02;;;;;;;5.50;4.50;;;25.30;99.90;;;;;;5000193;28;20036;-85
2023/09/26 11:00:28;;;;;;;6.32;4.22;;;24.50;99.90;;;;;;5000572;28;20421;-84
2023/09/26 11:02:54;;;;;;;5.03;3.85;;;24.60;99.90;;;;;;5026602;28;20051;-85
2023/09/26 11:05:20;;;;;;;4.90;4.10;;;24.80;99.90;;;;;;5002596;28;20065;-85
2023/09/26 11:07:46;;;;;;;8.52;3.80;;;24.70;99.90;;;;;;5015798;28;20485;-84
2023/09/26 11:10:15;;;;;;;5.75;3.58;;;24.60;99.90;;;;;;4992446;28;20030;-84
2023/09/26 11:12:41;;;;;;;5.63;4.00;;;24.90;99.90;;;;;;5017137;28;20175;-85
2023/09/26 11:15:08;;;;;;;4.65;3.35;;;25.20;99.90;;;;;;5026138;28;20485;-85
2023/09/26 11:17:35;;;;;;;4.30;3.22;;;25.60;99.90;;;;;;5004870;28;20037;-85
2023/09/26 11:20:05;;;;;;;8.38;3.60;;;25.70;99.90;;;;;;5028074;28;20589;-85
2023/09/26 11:22:30;;;;;;;8.07;3.40;;;25.40;99.90;;;;;;5014928;28;20026;-85
2023/09/26 11:25:08;;;;;;;6.80;3.40;;;25.90;99.90;;;;;;4995851;28;20029;-85
2023/09/26 11:28:03;;;;;;;6.38;3.70;;;26.30;99.90;;;;;;5015033;28;20041;-85
2023/09/26 11:30:29;;;;;;;6.72;3.60;;;25.80;99.90;;;;;;5016244;28;20064;-84
2023/09/26 11:32:55;;;;;;;5.68;3.63;;;25.90;99.90;;;;;;5013597;28;20080;-85
2023/09/26 11:35:25;;;;;;;5.75;4.05;;;25.00;99.90;;;;;;4996930;28;20088;-84
2023/09/26 11:37:53;;;;;;;5.32;4.78;;;24.40;99.90;;;;;;5017468;28;20018;-84
2023/09/26 11:40:23;;;;;;;4.93;3.85;;;24.00;99.90;;;;;;5018898;28;20034;-84
2023/09/26 11:42:51;;;;;;;4.97;4.07;;;23.50;99.90;;;;;;5001707;28;20026;-84
2023/09/26 11:45:25;;;;;;;4.70;3.55;;;23.70;99.90;;;;;;5013654;28;20064;-85
2023/09/26 11:47:57;;;;;;;6.65;3.25;;;24.70;99.90;;;;;;5016999;28;20020;-84
2023/09/26 11:50:23;;;;;;;5.95;3.42;;;25.00;99.90;;;;;;5005335;28;20385;-85
2023/09/26 11:52:50;;;;;;;4.70;3.47;;;25.00;99.90;;;;;;5006788;28;20476;-85
2023/09/26 11:55:22;;;;;;;8.15;3.25;;;25.20;99.90;;;;;;4996843;28;20030;-84
2023/09/26 11:57:49;;;;;;;6.07;3.38;;;25.60;99.90;;;;;;5023491;28;20088;-85
2023/09/26 12:00:35;;;;;;;8.55;3.45;;;26.00;99.90;;;;;;5009461;28;20033;-85
2023/09/26 12:03:01;;;;;;;5.28;3.67;;;26.10;99.90;;;;;;5004767;28;20065;-85
2023/09/26 12:05:27;;;;;;;6.03;3.95;;;25.90;99.90;;;;;;5002420;28;20512;-85
2023/09/26 12:07:53;;;;;;;7.22;4.03;;;25.60;99.90;;;;;;5027607;28;20124;-85
2023/09/26 12:10:19;;;;;;;7.25;3.80;;;25.70;99.90;;;;;;5027627;28;20062;-85
2023/09/26 12:12:46;;;;;;;5.45;4.63;;;26.30;99.90;;;;;;5015557;28;20492;-85
2023/09/26 12:15:27;;;;;;;3.85;3.22;;;26.20;99.90;;;;;;4999274;28;20032;-85
2023/09/26 12:17:54;;;;;;;6.85;3.88;;;25.80;99.90;;;;;;5009130;28;20481;-85
2023/09/26 12:20:22;;;;;;;6.18;3.10;;;26.00;99.90;;;;;;5020156;28;20026;-84
2023/09/26 12:22:49;;;;;;;4.38;2.75;;;25.90;99.90;;;;;;4999356;28;20948;-85
2023/09/26 12:25:15;;;;;;;3.78;3.40;;;26.00;99.90;;;;;;4999225;28;20400;-85
2023/09/26 12:27:41;;;;;;;6.75;3.55;;;26.00;99.90;;;;;;5027822;28;20044;-84
2023/09/26 12:30:07;;;;;;;4.47;3.25;;;25.60;99.90;;;;;;4998779;28;20056;-85
2023/09/26 12:32:33;;;;;;;4.32;3.00;;;25.40;99.90;;;;;;4995855;28;20552;-85
2023/09/26 12:34:59;;;;;;;3.08;2.78;;;25.30;99.90;;;;;;5007999;28;20057;-85
2023/09/26 12:37:44;;;;;;;7.63;3.10;;;25.50;99.90;;;;;;4997810;28;20034;-85
2023/09/26 12:40:13;;;;;;;3.38;2.67;;;25.60;99.90;;;;;;5010533;28;20041;-85
2023/09/26 12:42:40;;;;;;;4.60;3.33;;;25.50;99.90;;;;;;4990370;28;20022;-85
2023/09/26 12:45:06;;;;;;;7.05;3.28;;;25.50;99.90;;;;;;5020408;28;20070;-85
2023/09/26 12:47:33;;;;;;;4.43;2.90;;;25.20;99.90;;;;;;4996009;28;20030;-85
2023/09/26 12:50:05;;;;;;;4.55;3.20;;;24.80;99.90;;;;;;4992863;28;20119;-85